createdAt,value
2022-12-05T00:01:35.808Z,98438.63
2022-12-05T00:04:05.103Z,98442.09
2022-12-05T00:06:33.102Z,98436.19
2022-12-05T00:08:59.788Z,98438.31
2022-12-05T00:11:29.406Z,98442.84
2022-12-05T00:13:58.649Z,98445.28
2022-12-05T00:16:27.538Z,98449.56
2022-12-05T00:18:54.154Z,98446.91
2022-12-05T00:21:26.651Z,98445.84
2022-12-05T00:23:55.552Z,98450.13
2022-12-05T00:26:23.078Z,98450.13
2022-12-05T00:28:50.810Z,98442.91
2022-12-05T00:31:20.178Z,98444.78
2022-12-05T00:33:46.864Z,98445.28
2022-12-05T00:36:19.365Z,98439.94
2022-12-05T00:38:46.139Z,98439.94
2022-12-05T00:41:21.519Z,98435.38
2022-12-05T00:43:48.031Z,98436.19
2022-12-05T00:46:20.531Z,98436.19
2022-12-05T00:48:47.663Z,98436.19
2022-12-05T00:53:40.075Z,98443.16
2022-12-05T00:56:09.896Z,98453.06
2022-12-05T00:58:37.012Z,98453.06
2022-12-05T01:01:15.420Z,98455.47
2022-12-05T01:03:42.914Z,98451.75
2022-12-05T01:08:38.143Z,98469.94
2022-12-05T01:11:05.966Z,98469.94
2022-12-05T01:13:33.536Z,98475.28
2022-12-05T01:16:00.094Z,98482.50
2022-12-05T01:18:28.083Z,98488.66
2022-12-05T01:20:55.171Z,98502.84
2022-12-05T01:23:22.174Z,98511.94
2022-12-05T01:25:50.934Z,98506.59
2022-12-05T01:28:19.889Z,98505.78
2022-12-05T01:30:49.666Z,98504.16
2022-12-05T01:33:17.386Z,98514.88
2022-12-05T01:35:44.573Z,98502.53
2022-12-05T01:38:13.298Z,98506.03
2022-12-05T01:40:41.093Z,98509.97
2022-12-05T01:43:18.592Z,98505.78
2022-12-05T01:45:46.880Z,98499.63
2022-12-05T01:48:20.801Z,98503.66
2022-12-05T01:50:50.872Z,98494.28
2022-12-05T01:53:18.288Z,98504.97
2022-12-05T01:55:47.356Z,98514.88
2022-12-05T01:58:16.641Z,98498.00
2022-12-05T02:00:43.928Z,98506.59
2022-12-05T02:03:18.115Z,98507.41
2022-12-05T02:05:48.637Z,98507.97
2022-12-05T02:08:15.323Z,98511.94
2022-12-05T02:10:46.113Z,98512.75
2022-12-05T02:13:34.575Z,98504.47
2022-12-05T02:16:13.264Z,98506.34
2022-12-05T02:19:04.968Z,98520.22
2022-12-05T02:22:02.050Z,98511.94
2022-12-05T02:24:52.889Z,98526.94
2022-12-05T02:27:43.663Z,98526.94
2022-12-05T02:30:14.220Z,98523.22
2022-12-05T02:32:58.972Z,98530.44
2022-12-05T02:35:51.823Z,98547.06
2022-12-05T02:38:22.642Z,98545.78
2022-12-05T02:41:01.008Z,98548.75
2022-12-05T02:43:55.408Z,98558.44
2022-12-05T02:46:25.938Z,98553.31
2022-12-05T02:48:57.102Z,98553.00
2022-12-05T02:51:29.542Z,98556.22
2022-12-05T02:53:59.816Z,98565.88
2022-12-05T02:56:27.577Z,98564.25
2022-12-05T02:58:56.490Z,98573.91
2022-12-05T03:01:27.547Z,98579.28
2022-12-05T03:03:56.296Z,98581.69
2022-12-05T03:06:37.090Z,98580.88
2022-12-05T03:09:09.040Z,98573.09
2022-12-05T03:11:46.038Z,98557.53
2022-12-05T03:14:21.618Z,98558.34
2022-12-05T03:16:54.139Z,98550.31
2022-12-05T03:19:27.493Z,98551.38
2022-12-05T03:22:07.735Z,98548.69
2022-12-05T03:24:38.247Z,98548.13
2022-12-05T03:27:21.053Z,98549.66
2022-12-05T03:29:56.664Z,98543.72
2022-12-05T03:32:45.080Z,98543.25
2022-12-05T03:35:35.936Z,98550.22
2022-12-05T03:38:14.663Z,98552.34
2022-12-05T03:40:49.420Z,98553.97
2022-12-05T03:43:32.122Z,98553.97
2022-12-05T03:46:04.892Z,98560.44
2022-12-05T03:48:46.765Z,98559.88
2022-12-05T03:51:17.559Z,98553.47
2022-12-05T03:54:04.960Z,98555.09
2022-12-05T03:56:43.318Z,98557.75
2022-12-05T03:59:24.313Z,98560.22
2022-12-05T04:01:54.092Z,98562.66
2022-12-05T04:04:29.941Z,98546.91
2022-12-05T04:07:00.378Z,98556.31
2022-12-05T04:09:49.875Z,98560.28
2022-12-05T04:12:22.633Z,98547.50
2022-12-05T04:14:57.787Z,98547.16
2022-12-05T04:17:51.890Z,98556.22
2022-12-05T04:20:58.750Z,98546.59
2022-12-05T04:23:26.303Z,98547.66
2022-12-05T04:25:55.778Z,98556.94
2022-12-05T04:28:48.777Z,98557.44
2022-12-05T04:31:18.694Z,98552.34
2022-12-05T04:33:54.223Z,98563.06
2022-12-05T04:36:34.037Z,98561.09
2022-12-05T04:39:10.745Z,98584.94
2022-12-05T04:41:47.232Z,98584.47
2022-12-05T04:44:25.449Z,98582.34
2022-12-05T04:46:55.194Z,98583.50
2022-12-05T04:49:25.648Z,98580.88
2022-12-05T04:51:57.793Z,98583.09
2022-12-05T04:54:29.537Z,98593.56
2022-12-05T04:57:05.527Z,98591.69
2022-12-05T04:59:32.221Z,98577.75
2022-12-05T05:02:06.961Z,98577.25
2022-12-05T05:04:47.530Z,98586.91
2022-12-05T05:07:17.068Z,98595.53
2022-12-05T05:09:44.217Z,98591.78
2022-12-05T05:12:17.222Z,98587.50
2022-12-05T05:14:45.564Z,98586.44
2022-12-05T05:17:12.140Z,98586.91
2022-12-05T05:19:38.833Z,98587.72
2022-12-05T05:22:05.593Z,98589.34
2022-12-05T05:24:32.393Z,98592.03
2022-12-05T05:26:58.944Z,98600.88
2022-12-05T05:29:26.285Z,98600.88
2022-12-05T05:31:52.905Z,98614.47
2022-12-05T05:34:19.535Z,98617.75
2022-12-05T05:36:46.191Z,98615.31
2022-12-05T05:39:15.301Z,98616.69
2022-12-05T05:41:42.792Z,98626.09
2022-12-05T05:44:09.884Z,98624.56
2022-12-05T05:46:37.298Z,98634.47
2022-12-05T05:49:04.423Z,98649.25
2022-12-05T05:51:34.183Z,98642.00
2022-12-05T05:54:01.283Z,98655.41
2022-12-05T05:56:28.770Z,98646.31
2022-12-05T05:59:01.045Z,98640.13
2022-12-05T06:01:29.989Z,98627.34
2022-12-05T06:03:57.799Z,98631.91
2022-12-05T06:06:25.408Z,98630.59
2022-12-05T06:08:52.929Z,98626.84
2022-12-05T06:11:26.590Z,98628.72
2022-12-05T06:13:56.004Z,98629.53
2022-12-05T06:16:23.044Z,98631.16
2022-12-05T06:18:50.090Z,98630.91
2022-12-05T06:21:18.852Z,98627.41
2022-12-05T06:23:46.023Z,98630.69
2022-12-05T06:26:16.226Z,98631.22
2022-12-05T06:28:43.501Z,98629.63
2022-12-05T06:31:13.148Z,98629.63
2022-12-05T06:33:40.282Z,98630.69
2022-12-05T06:36:10.386Z,98651.03
2022-12-05T06:38:41.978Z,98659.88
2022-12-05T06:41:11.677Z,98663.88
2022-12-05T06:43:38.348Z,98679.19
2022-12-05T06:46:06.529Z,98675.97
2022-12-05T06:48:33.198Z,98678.94
2022-12-05T06:50:59.772Z,98676.28
2022-12-05T06:53:28.443Z,98680.59
2022-12-05T06:56:00.267Z,98678.50
2022-12-05T06:58:27.887Z,98675.25
2022-12-05T07:01:13.622Z,98687.09
2022-12-05T07:03:42.268Z,98697.81
2022-12-05T07:06:09.094Z,98692.44
2022-12-05T07:08:36.167Z,98690.31
2022-12-05T07:11:03.947Z,98676.72
2022-12-05T07:13:30.569Z,98671.34
2022-12-05T07:15:59.102Z,98689.84
2022-12-05T07:18:26.800Z,98688.56
2022-12-05T07:21:13.834Z,98690.41
2022-12-05T07:23:42.224Z,98714.88
2022-12-05T07:26:16.064Z,98721.03
2022-12-05T07:28:42.902Z,98725.34
2022-12-05T07:31:16.651Z,98722.41
2022-12-05T07:33:50.237Z,98722.16
2022-12-05T07:36:19.504Z,98728.13
2022-12-05T07:38:48.721Z,98723.31
2022-12-05T07:41:27.437Z,98719.59
2022-12-05T07:43:56.578Z,98722.09
2022-12-05T07:46:24.695Z,98726.75
2022-12-05T07:48:52.423Z,98725.19
2022-12-05T07:51:20.084Z,98722.34
2022-12-05T07:53:46.777Z,98718.63
2022-12-05T07:56:16.998Z,98712.28
2022-12-05T07:58:45.162Z,98718.53
2022-12-05T08:01:18.077Z,98726.91
2022-12-05T08:03:45.271Z,98710.03
2022-12-05T08:06:18.107Z,98719.44
2022-12-05T08:08:45.965Z,98725.34
2022-12-05T08:11:15.845Z,98725.13
2022-12-05T08:13:44.902Z,98721.13
2022-12-05T08:16:13.939Z,98720.88
2022-12-05T08:18:40.856Z,98733.31
2022-12-05T08:21:12.331Z,98738.19
2022-12-05T08:23:40.068Z,98739.84
2022-12-05T08:26:13.426Z,98744.94
2022-12-05T08:28:40.075Z,98746.81
2022-12-05T08:31:17.930Z,98744.19
2022-12-05T08:33:44.928Z,98745.84
2022-12-05T08:36:15.665Z,98747.72
2022-12-05T08:38:43.317Z,98752.56
2022-12-05T08:41:13.719Z,98752.81
2022-12-05T08:43:40.395Z,98757.13
2022-12-05T08:46:07.643Z,98766.50
2022-12-05T08:48:34.869Z,98765.59
2022-12-05T08:51:06.475Z,98777.13
2022-12-05T08:53:33.294Z,98766.06
2022-12-05T08:56:05.392Z,98773.06
2022-12-05T08:58:32.614Z,98770.38
2022-12-05T09:01:10.887Z,98762.31
2022-12-05T09:03:40.088Z,98772.03
2022-12-05T09:06:11.776Z,98770.97
2022-12-05T09:08:39.840Z,98772.88
2022-12-05T09:11:11.336Z,98772.41
2022-12-05T09:13:38.138Z,98773.78
2022-12-05T09:16:09.794Z,98783.78
2022-12-05T09:18:36.807Z,98788.09
2022-12-05T09:21:11.837Z,98792.72
2022-12-05T09:23:39.038Z,98789.78
2022-12-05T09:26:07.719Z,98801.34
2022-12-05T09:28:34.955Z,98798.41
2022-12-05T09:31:05.180Z,98797.94
2022-12-05T09:33:34.302Z,98802.47
2022-12-05T09:36:12.438Z,98803.28
2022-12-05T09:38:39.195Z,98807.09
2022-12-05T09:41:08.877Z,98807.09
2022-12-05T09:44:02.352Z,98802.31
2022-12-05T09:46:52.359Z,98802.63
2022-12-05T09:49:20.732Z,98801.09
2022-12-05T09:51:54.981Z,98807.31
2022-12-05T09:54:23.348Z,98812.50
2022-12-05T09:56:51.831Z,98802.34
2022-12-05T09:59:20.582Z,98810.97
2022-12-05T10:02:03.384Z,98807.22
2022-12-05T10:05:00.138Z,98806.66
2022-12-05T10:08:14.761Z,98814.16
2022-12-05T10:11:03.074Z,98804.97
2022-12-05T10:14:06.687Z,98811.38
2022-12-05T10:16:42.030Z,98801.94
2022-12-05T10:19:18.228Z,98814.56
2022-12-05T10:22:03.019Z,98809.94
2022-12-05T10:24:39.091Z,98813.44
2022-12-05T10:27:39.553Z,98813.44
2022-12-05T10:30:29.918Z,98809.13
2022-12-05T10:33:01.755Z,98806.50
2022-12-05T10:35:36.973Z,98806.03
2022-12-05T10:38:12.796Z,98804.44
2022-12-05T10:40:42.972Z,98803.41
2022-12-05T10:43:14.438Z,98796.47
2022-12-05T10:45:46.668Z,98796.00
2022-12-05T10:48:16.126Z,98800.59
2022-12-05T10:50:44.686Z,98800.41
2022-12-05T10:53:19.936Z,98804.31
2022-12-05T10:56:06.857Z,98803.28
2022-12-05T10:58:35.870Z,98803.28
2022-12-05T11:01:09.329Z,98803.88
2022-12-05T11:03:39.567Z,98802.81
2022-12-05T11:06:27.739Z,98800.41
2022-12-05T11:09:17.153Z,98797.53
2022-12-05T11:11:58.051Z,98790.69
2022-12-05T11:14:27.371Z,98782.19
2022-12-05T11:16:59.419Z,98784.88
2022-12-05T11:19:31.333Z,98795.63
2022-12-05T11:21:58.467Z,98800.44
2022-12-05T11:24:32.926Z,98795.53
2022-12-05T11:27:20.965Z,98793.94
2022-12-05T11:29:56.165Z,98786.41
2022-12-05T11:32:29.743Z,98787.84
2022-12-05T11:35:11.826Z,98783.41
2022-12-05T11:37:50.315Z,98781.38
2022-12-05T11:40:40.206Z,98777.09
2022-12-05T11:43:18.716Z,98780.41
2022-12-05T11:45:53.271Z,98781.25
2022-12-05T11:48:41.317Z,98776.78
2022-12-05T11:51:29.251Z,98774.09
2022-12-05T11:54:09.956Z,98770.88
2022-12-05T11:56:41.778Z,98776.28
2022-12-05T11:59:46.034Z,98771.69
2022-12-05T12:03:03.907Z,98768.19
2022-12-05T12:05:32.172Z,98765.13
2022-12-05T12:08:27.785Z,98774.56
2022-12-05T12:11:01.059Z,98772.94
2022-12-05T12:14:05.670Z,98770.50
2022-12-05T12:16:41.202Z,98767.56
2022-12-05T12:19:29.775Z,98769.69
2022-12-05T12:22:06.760Z,98768.06
2022-12-05T12:24:55.133Z,98768.88
2022-12-05T12:27:40.494Z,98769.16
2022-12-05T12:30:18.396Z,98773.44
2022-12-05T12:33:00.445Z,98766.72
2022-12-05T12:35:28.378Z,98773.44
2022-12-05T12:38:15.771Z,98773.97
2022-12-05T12:40:55.287Z,98773.97
2022-12-05T12:43:52.821Z,98769.09
2022-12-05T12:46:23.798Z,98774.00
2022-12-05T12:49:01.265Z,98782.06
2022-12-05T12:51:31.386Z,98771.91
2022-12-05T12:55:02.101Z,98771.69
2022-12-05T12:57:29.490Z,98765.81
2022-12-05T13:00:12.962Z,98761.53
2022-12-05T13:02:55.364Z,98761.88
2022-12-05T13:05:48.175Z,98755.69
2022-12-05T13:08:21.135Z,98756.97
2022-12-05T13:10:49.115Z,98753.25
2022-12-05T13:13:25.248Z,98755.69
2022-12-05T13:15:55.975Z,98760.25
2022-12-05T13:18:26.016Z,98760.72
2022-12-05T13:20:55.497Z,98765.81
2022-12-05T13:23:27.696Z,98760.13
2022-12-05T13:25:58.306Z,98760.66
2022-12-05T13:28:32.776Z,98756.84
2022-12-05T13:31:12.061Z,98765.44
2022-12-05T13:33:47.912Z,98760.81
2022-12-05T13:36:41.216Z,98758.38
2022-12-05T13:39:38.294Z,98761.06
2022-12-05T13:42:15.480Z,98757.31
2022-12-05T13:44:46.275Z,98764.84
2022-12-05T13:47:33.268Z,98764.63
2022-12-05T13:50:14.479Z,98764.31
2022-12-05T13:53:06.238Z,98772.31
2022-12-05T13:55:53.886Z,98771.22
2022-12-05T13:58:20.437Z,98782.75
2022-12-05T14:00:47.259Z,98783.53
2022-12-05T14:03:35.287Z,98788.84
2022-12-05T14:06:01.945Z,98791.47
2022-12-05T14:08:32.185Z,98789.28
2022-12-05T14:11:01.675Z,98791.41
2022-12-05T14:13:29.028Z,98799.72
2022-12-05T14:16:24.331Z,98801.88
2022-12-05T14:19:16.867Z,98793.47
2022-12-05T14:21:55.386Z,98793.75
2022-12-05T14:24:26.243Z,98796.13
2022-12-05T14:26:52.920Z,98793.44
2022-12-05T14:29:34.752Z,98800.38
2022-12-05T14:32:23.953Z,98803.88
2022-12-05T14:35:12.526Z,98804.38
2022-12-05T14:37:56.740Z,98796.56
2022-12-05T14:40:33.683Z,98801.94
2022-12-05T14:43:04.777Z,98802.44
2022-12-05T14:45:39.201Z,98810.75
2022-12-05T14:48:33.480Z,98812.38
2022-12-05T14:51:01.100Z,98808.56
2022-12-05T14:53:34.676Z,98822.25
2022-12-05T14:56:01.351Z,98812.56
2022-12-05T14:58:39.386Z,98810.94
2022-12-05T15:01:30.891Z,98813.84
2022-12-05T15:04:18.040Z,98807.69
2022-12-05T15:06:44.600Z,98811.69
2022-12-05T15:09:38.025Z,98804.94
2022-12-05T15:12:13.503Z,98813.56
2022-12-05T15:15:14.599Z,98808.66
2022-12-05T15:18:09.351Z,98810.53
2022-12-05T15:20:50.312Z,98803.00
2022-12-05T15:23:38.828Z,98804.06
2022-12-05T15:26:44.909Z,98811.31
2022-12-05T15:29:33.689Z,98801.84
2022-12-05T15:32:14.634Z,98806.41
2022-12-05T15:34:57.894Z,98815.00
2022-12-05T15:37:43.314Z,98820.84
2022-12-05T15:40:21.253Z,98829.97
2022-12-05T15:42:57.131Z,98832.81
2022-12-05T15:45:29.278Z,98834.63
2022-12-05T15:48:00.076Z,98828.63
2022-12-05T15:50:42.836Z,98830.09
2022-12-05T15:53:12.283Z,98834.81
2022-12-05T15:55:47.372Z,98842.78
2022-12-05T15:58:39.858Z,98846.44
2022-12-05T16:01:14.711Z,98855.25
2022-12-05T16:03:45.692Z,98851.16
2022-12-05T16:06:28.448Z,98859.22
2022-12-05T16:08:56.260Z,98848.66
2022-12-05T16:11:23.347Z,98852.41
2022-12-05T16:13:54.480Z,98845.91
2022-12-05T16:16:28.800Z,98849.66
2022-12-05T16:19:04.656Z,98851.50
2022-12-05T16:21:41.318Z,98854.69
2022-12-05T16:24:18.976Z,98852.72
2022-12-05T16:26:58.701Z,98865.91
2022-12-05T16:29:31.100Z,98858.88
2022-12-05T16:31:59.460Z,98862.97
2022-12-05T16:34:27.564Z,98873.44
2022-12-05T16:36:56.802Z,98874.00
2022-12-05T16:39:26.516Z,98879.97
2022-12-05T16:41:53.693Z,98871.69
2022-12-05T16:44:58.529Z,98875.16
2022-12-05T16:47:49.282Z,98871.44
2022-12-05T16:50:23.561Z,98873.03
2022-12-05T16:52:50.778Z,98869.56
2022-12-05T16:55:17.353Z,98867.69
2022-12-05T16:57:44.258Z,98872.56
2022-12-05T17:00:15.437Z,98869.91
2022-12-05T17:02:42.189Z,98875.25
2022-12-05T17:05:15.420Z,98873.13
2022-12-05T17:07:42.114Z,98868.34
2022-12-05T17:10:08.971Z,98873.69
2022-12-05T17:12:35.993Z,98875.31
2022-12-05T17:15:02.752Z,98869.41
2022-12-05T17:17:29.517Z,98881.28
2022-12-05T17:19:56.337Z,98882.34
2022-12-05T17:22:23.287Z,98882.66
2022-12-05T17:24:49.907Z,98876.47
2022-12-05T17:27:16.482Z,98877.63
2022-12-05T17:29:43.216Z,98873.28
2022-12-05T17:32:10.971Z,98868.97
2022-12-05T17:34:38.925Z,98867.38
2022-12-05T17:37:07.106Z,98865.19
2022-12-05T17:39:33.974Z,98864.94
2022-12-05T17:42:00.560Z,98869.50
2022-12-05T17:44:27.586Z,98874.59
2022-12-05T17:46:54.473Z,98871.09
2022-12-05T17:49:22.865Z,98875.66
2022-12-05T17:54:36.484Z,98887.22
2022-12-05T17:57:03.204Z,98879.72
2022-12-05T17:59:29.772Z,98867.91
2022-12-05T18:01:56.358Z,98863.63
2022-12-05T18:04:23.796Z,98874.34
2022-12-05T18:06:50.773Z,98873.53
2022-12-05T18:09:17.462Z,98872.47
2022-12-05T18:11:44.168Z,98869.50
2022-12-05T18:14:10.737Z,98877.03
2022-12-05T18:16:37.866Z,98874.84
2022-12-05T18:19:04.625Z,98878.00
2022-12-05T18:21:32.595Z,98880.69
2022-12-05T18:24:00.036Z,98871.53
2022-12-05T18:26:27.922Z,98870.97
2022-12-05T18:28:56.815Z,98869.81
2022-12-05T18:31:27.161Z,98871.94
2022-12-05T18:33:53.940Z,98878.72
2022-12-05T18:36:22.109Z,98878.72
2022-12-05T18:38:54.143Z,98879.69
2022-12-05T18:41:23.451Z,98884.72
2022-12-05T18:43:51.143Z,98886.03
2022-12-05T18:46:20.873Z,98893.03
2022-12-05T18:48:48.249Z,98893.84
2022-12-05T18:51:18.329Z,98893.84
2022-12-05T18:53:52.366Z,98890.91
2022-12-05T18:56:23.150Z,98891.63
2022-12-05T18:58:55.760Z,98894.22
2022-12-05T19:01:23.637Z,98891.19
2022-12-05T19:03:50.695Z,98895.41
2022-12-05T19:06:22.250Z,98900.44
2022-12-05T19:08:50.030Z,98899.06
2022-12-05T19:11:18.095Z,98897.66
2022-12-05T19:13:45.084Z,98907.94
2022-12-05T19:16:18.810Z,98911.16
2022-12-05T19:18:46.633Z,98905.56
2022-12-05T19:21:13.656Z,98909.41
2022-12-05T19:23:40.306Z,98902.97
2022-12-05T19:26:10.009Z,98904.13
2022-12-05T19:28:38.168Z,98899.81
2022-12-05T19:31:07.729Z,98905.19
2022-12-05T19:33:45.301Z,98909.72
2022-12-05T19:36:24.056Z,98904.03
2022-12-05T19:38:52.382Z,98905.41
2022-12-05T19:41:23.048Z,98909.25
2022-12-05T19:43:49.860Z,98910.88
2022-12-05T19:46:22.612Z,98913.31
2022-12-05T19:48:49.210Z,98916.81
2022-12-05T19:51:16.057Z,98902.59
2022-12-05T19:53:44.087Z,98911.69
2022-12-05T19:56:16.579Z,98899.34
2022-12-05T19:58:43.958Z,98903.66
2022-12-05T20:01:16.149Z,98906.78
2022-12-05T20:03:44.270Z,98899.81
2022-12-05T20:06:11.306Z,98915.44
2022-12-05T20:08:40.547Z,98919.75
2022-12-05T20:11:09.647Z,98913.31
2022-12-05T20:13:47.961Z,98921.38
2022-12-05T20:16:17.320Z,98912.25
2022-12-05T20:18:44.138Z,98924.06
2022-12-05T20:21:13.963Z,98910.06
2022-12-05T20:23:40.546Z,98914.13
2022-12-05T20:26:10.451Z,98910.06
2022-12-05T20:28:37.671Z,98908.78
2022-12-05T20:31:17.852Z,98911.69
2022-12-05T20:33:45.496Z,98917.06
2022-12-05T20:36:20.101Z,98912.16
2022-12-05T20:38:47.679Z,98911.34
2022-12-05T20:41:18.551Z,98912.66
2022-12-05T20:43:47.334Z,98916.41
2022-12-05T20:46:19.503Z,98916.41
2022-12-05T20:48:48.039Z,98912.41
2022-12-05T20:51:35.822Z,98914.28
2022-12-05T20:54:04.048Z,98907.03
2022-12-05T20:56:33.082Z,98915.69
2022-12-05T20:59:05.412Z,98915.91
2022-12-05T21:01:37.115Z,98912.16
2022-12-05T21:04:06.679Z,98906.78
2022-12-05T21:06:38.185Z,98917.53
2022-12-05T21:09:06.808Z,98914.28
2022-12-05T21:11:33.604Z,98913.47
2022-12-05T21:14:00.713Z,98915.91
2022-12-05T21:16:28.223Z,98911.28
2022-12-05T21:18:56.102Z,98914.84
2022-12-05T21:21:26.037Z,98913.00
2022-12-05T21:24:00.559Z,98913.81
2022-12-05T21:26:29.254Z,98918.94
2022-12-05T21:28:56.624Z,98904.72
2022-12-05T21:31:26.490Z,98912.84
2022-12-05T21:33:55.772Z,98907.50
2022-12-05T21:36:23.997Z,98907.97
2022-12-05T21:38:55.665Z,98894.00
2022-12-05T21:41:23.499Z,98909.00
2022-12-05T21:43:54.547Z,98904.47
2022-12-05T21:46:21.653Z,98904.47
2022-12-05T21:48:48.391Z,98909.59
2022-12-05T21:51:15.145Z,98904.47
2022-12-05T21:53:42.023Z,98904.22
2022-12-05T21:56:11.809Z,98906.34
2022-12-05T21:58:42.380Z,98906.34
2022-12-05T22:01:11.216Z,98902.84
2022-12-05T22:03:40.332Z,98909.00
2022-12-05T22:06:10.609Z,98899.59
2022-12-05T22:08:40.325Z,98907.63
2022-12-05T22:11:13.069Z,98908.44
2022-12-05T22:13:40.369Z,98906.78
2022-12-05T22:16:08.040Z,98905.97
2022-12-05T22:18:35.304Z,98904.13
2022-12-05T22:21:08.810Z,98909.25
2022-12-05T22:23:35.562Z,98901.44
2022-12-05T22:26:09.582Z,98911.59
2022-12-05T22:28:36.390Z,98898.69
2022-12-05T22:31:05.817Z,98900.88
2022-12-05T22:33:33.201Z,98898.69
2022-12-05T22:36:01.038Z,98897.06
2022-12-05T22:38:30.046Z,98898.19
2022-12-05T22:40:58.252Z,98902.41
2022-12-05T22:43:26.066Z,98901.94
2022-12-05T22:45:53.258Z,98900.31
2022-12-05T22:48:20.760Z,98892.81
2022-12-05T22:50:52.794Z,98896.81
2022-12-05T22:53:21.691Z,98892.00
2022-12-05T22:55:48.826Z,98887.97
2022-12-05T22:58:15.846Z,98887.16
2022-12-05T23:00:42.833Z,98882.00
2022-12-05T23:03:09.991Z,98880.13
2022-12-05T23:05:42.216Z,98872.34
2022-12-05T23:08:10.283Z,98879.31
2022-12-05T23:10:39.220Z,98883.06
2022-12-05T23:13:07.550Z,98877.69
2022-12-05T23:15:38.099Z,98877.44
2022-12-05T23:18:05.030Z,98871.53
2022-12-05T23:20:31.652Z,98884.22
2022-12-05T23:22:58.294Z,98874.56
2022-12-05T23:25:28.403Z,98877.22
2022-12-05T23:27:55.416Z,98878.34
2022-12-05T23:30:21.976Z,98868.13
2022-12-05T23:32:48.659Z,98872.69
2022-12-05T23:35:15.318Z,98875.59
2022-12-05T23:37:41.932Z,98879.31
2022-12-05T23:40:09.226Z,98876.41
2022-12-05T23:42:36.027Z,98866.72
2022-12-05T23:45:05.541Z,98868.44
2022-12-05T23:47:32.034Z,98870.56
2022-12-05T23:49:59.167Z,98867.56
2022-12-05T23:52:26.649Z,98870.56
2022-12-05T23:54:53.346Z,98860.09
2022-12-05T23:57:20.299Z,98867.31
2022-12-05T23:59:46.942Z,98870.31
